sensor_id;sensor_type;location;lat;lon;timestamp;P1;durP1;ratioP1;P2;durP2;ratioP2
53062;SDS011;40529;52.172;10.548;2023-05-10T00:02:14;9.57;;;6.13;;
53062;SDS011;40529;52.172;10.548;2023-05-10T00:04:40;10.02;;;5.97;;
53062;SDS011;40529;52.172;10.548;2023-05-10T00:07:06;7.63;;;6.30;;
53062;SDS011;40529;52.172;10.548;2023-05-10T00:09:32;9.85;;;6.35;;
53062;SDS011;40529;52.172;10.548;2023-05-10T00:11:58;9.93;;;6.18;;
53062;SDS011;40529;52.172;10.548;2023-05-10T00:14:24;9.40;;;6.13;;
53062;SDS011;40529;52.172;10.548;2023-05-10T00:16:50;12.65;;;6.15;;
53062;SDS011;40529;52.172;10.548;2023-05-10T00:19:16;7.47;;;6.00;;
53062;SDS011;40529;52.172;10.548;2023-05-10T00:21:42;10.10;;;6.90;;
53062;SDS011;40529;52.172;10.548;2023-05-10T00:24:08;9.70;;;5.82;;
53062;SDS011;40529;52.172;10.548;2023-05-10T00:26:34;10.85;;;6.90;;
53062;SDS011;40529;52.172;10.548;2023-05-10T00:29:00;7.43;;;6.13;;
53062;SDS011;40529;52.172;10.548;2023-05-10T00:31:26;6.50;;;5.82;;
53062;SDS011;40529;52.172;10.548;2023-05-10T00:33:52;10.80;;;6.10;;
53062;SDS011;40529;52.172;10.548;2023-05-10T00:36:18;8.60;;;6.13;;
53062;SDS011;40529;52.172;10.548;2023-05-10T00:38:45;8.77;;;6.30;;
53062;SDS011;40529;52.172;10.548;2023-05-10T00:41:11;7.65;;;6.47;;
53062;SDS011;40529;52.172;10.548;2023-05-10T00:43:37;9.70;;;6.30;;
53062;SDS011;40529;52.172;10.548;2023-05-10T00:46:04;8.75;;;6.45;;
53062;SDS011;40529;52.172;10.548;2023-05-10T00:48:30;7.40;;;6.07;;
53062;SDS011;40529;52.172;10.548;2023-05-10T00:50:57;10.00;;;6.50;;
53062;SDS011;40529;52.172;10.548;2023-05-10T00:53:23;8.55;;;6.15;;
53062;SDS011;40529;52.172;10.548;2023-05-10T00:55:49;13.38;;;6.50;;
53062;SDS011;40529;52.172;10.548;2023-05-10T00:58:16;10.40;;;5.85;;
53062;SDS011;40529;52.172;10.548;2023-05-10T01:00:42;8.48;;;6.45;;
53062;SDS011;40529;52.172;10.548;2023-05-10T01:03:09;7.72;;;6.00;;
53062;SDS011;40529;52.172;10.548;2023-05-10T01:05:36;9.77;;;6.68;;
53062;SDS011;40529;52.172;10.548;2023-05-10T01:08:02;7.70;;;5.78;;
53062;SDS011;40529;52.172;10.548;2023-05-10T01:10:28;7.60;;;5.53;;
53062;SDS011;40529;52.172;10.548;2023-05-10T01:12:54;7.72;;;5.55;;
53062;SDS011;40529;52.172;10.548;2023-05-10T01:15:20;8.27;;;6.00;;
53062;SDS011;40529;52.172;10.548;2023-05-10T01:17:47;8.20;;;6.25;;
53062;SDS011;40529;52.172;10.548;2023-05-10T01:20:13;7.63;;;5.80;;
53062;SDS011;40529;52.172;10.548;2023-05-10T01:31:07;9.27;;;6.32;;
53062;SDS011;40529;52.172;10.548;2023-05-10T01:33:39;8.10;;;6.20;;
53062;SDS011;40529;52.172;10.548;2023-05-10T01:36:16;7.57;;;5.53;;
53062;SDS011;40529;52.172;10.548;2023-05-10T01:38:51;10.75;;;6.57;;
53062;SDS011;40529;52.172;10.548;2023-05-10T01:41:28;7.72;;;5.43;;
53062;SDS011;40529;52.172;10.548;2023-05-10T01:46:37;6.82;;;5.10;;
53062;SDS011;40529;52.172;10.548;2023-05-10T01:49:08;7.38;;;5.50;;
53062;SDS011;40529;52.172;10.548;2023-05-10T01:51:53;8.15;;;5.82;;
53062;SDS011;40529;52.172;10.548;2023-05-10T01:54:20;8.50;;;5.93;;
53062;SDS011;40529;52.172;10.548;2023-05-10T01:56:52;7.13;;;5.93;;
53062;SDS011;40529;52.172;10.548;2023-05-10T01:59:22;8.32;;;5.75;;
53062;SDS011;40529;52.172;10.548;2023-05-10T02:01:48;7.65;;;5.50;;
53062;SDS011;40529;52.172;10.548;2023-05-10T02:04:16;8.80;;;5.78;;
53062;SDS011;40529;52.172;10.548;2023-05-10T02:06:43;8.50;;;5.78;;
53062;SDS011;40529;52.172;10.548;2023-05-10T02:09:10;12.30;;;6.20;;
53062;SDS011;40529;52.172;10.548;2023-05-10T02:11:37;8.32;;;5.82;;
53062;SDS011;40529;52.172;10.548;2023-05-10T02:14:05;7.90;;;5.70;;
53062;SDS011;40529;52.172;10.548;2023-05-10T02:16:31;7.68;;;5.93;;
53062;SDS011;40529;52.172;10.548;2023-05-10T02:18:57;10.25;;;6.20;;
53062;SDS011;40529;52.172;10.548;2023-05-10T02:21:24;8.68;;;5.93;;
53062;SDS011;40529;52.172;10.548;2023-05-10T02:23:51;9.65;;;5.78;;
53062;SDS011;40529;52.172;10.548;2023-05-10T02:26:17;7.82;;;5.78;;
53062;SDS011;40529;52.172;10.548;2023-05-10T02:28:45;7.55;;;5.57;;
53062;SDS011;40529;52.172;10.548;2023-05-10T02:31:11;8.88;;;6.35;;
53062;SDS011;40529;52.172;10.548;2023-05-10T02:33:40;7.45;;;6.00;;
53062;SDS011;40529;52.172;10.548;2023-05-10T02:36:07;7.47;;;4.47;;
53062;SDS011;40529;52.172;10.548;2023-05-10T02:38:33;8.05;;;5.70;;
53062;SDS011;40529;52.172;10.548;2023-05-10T02:41:01;8.18;;;6.28;;
53062;SDS011;40529;52.172;10.548;2023-05-10T02:43:27;11.48;;;6.43;;
53062;SDS011;40529;52.172;10.548;2023-05-10T02:45:55;7.20;;;6.05;;
53062;SDS011;40529;52.172;10.548;2023-05-10T02:48:21;7.93;;;5.82;;
53062;SDS011;40529;52.172;10.548;2023-05-10T02:50:47;8.55;;;6.50;;
53062;SDS011;40529;52.172;10.548;2023-05-10T02:53:18;8.77;;;6.35;;
53062;SDS011;40529;52.172;10.548;2023-05-10T02:55:45;7.07;;;5.60;;
53062;SDS011;40529;52.172;10.548;2023-05-10T02:58:12;8.10;;;6.20;;
53062;SDS011;40529;52.172;10.548;2023-05-10T03:00:38;7.65;;;5.82;;
53062;SDS011;40529;52.172;10.548;2023-05-10T03:03:04;8.63;;;6.35;;
53062;SDS011;40529;52.172;10.548;2023-05-10T03:05:31;10.52;;;6.70;;
53062;SDS011;40529;52.172;10.548;2023-05-10T03:07:58;9.75;;;6.35;;
53062;SDS011;40529;52.172;10.548;2023-05-10T03:10:28;10.32;;;6.63;;
53062;SDS011;40529;52.172;10.548;2023-05-10T03:20:29;9.43;;;6.50;;
53062;SDS011;40529;52.172;10.548;2023-05-10T03:23:01;8.50;;;6.35;;
53062;SDS011;40529;52.172;10.548;2023-05-10T03:25:28;10.32;;;6.47;;
53062;SDS011;40529;52.172;10.548;2023-05-10T03:27:55;8.70;;;6.65;;
53062;SDS011;40529;52.172;10.548;2023-05-10T03:30:21;12.20;;;6.70;;
53062;SDS011;40529;52.172;10.548;2023-05-10T03:32:48;8.40;;;6.20;;
53062;SDS011;40529;52.172;10.548;2023-05-10T03:35:14;7.90;;;6.13;;
53062;SDS011;40529;52.172;10.548;2023-05-10T03:37:40;8.27;;;6.43;;
53062;SDS011;40529;52.172;10.548;2023-05-10T03:40:06;7.60;;;5.90;;
53062;SDS011;40529;52.172;10.548;2023-05-10T03:42:32;9.52;;;6.68;;
53062;SDS011;40529;52.172;10.548;2023-05-10T03:44:58;10.48;;;6.85;;
53062;SDS011;40529;52.172;10.548;2023-05-10T03:47:24;10.98;;;6.30;;
53062;SDS011;40529;52.172;10.548;2023-05-10T03:49:50;8.27;;;6.88;;
53062;SDS011;40529;52.172;10.548;2023-05-10T03:52:16;9.18;;;6.47;;
53062;SDS011;40529;52.172;10.548;2023-05-10T03:54:43;9.00;;;6.50;;
53062;SDS011;40529;52.172;10.548;2023-05-10T03:57:08;11.55;;;6.38;;
53062;SDS011;40529;52.172;10.548;2023-05-10T03:59:34;8.85;;;6.40;;
53062;SDS011;40529;52.172;10.548;2023-05-10T04:02:00;8.52;;;6.20;;
53062;SDS011;40529;52.172;10.548;2023-05-10T04:04:27;8.55;;;6.45;;
53062;SDS011;40529;52.172;10.548;2023-05-10T04:06:53;10.40;;;6.40;;
53062;SDS011;40529;52.172;10.548;2023-05-10T04:09:19;11.52;;;6.90;;
53062;SDS011;40529;52.172;10.548;2023-05-10T04:11:45;9.23;;;6.85;;
53062;SDS011;40529;52.172;10.548;2023-05-10T04:14:11;9.13;;;6.63;;
53062;SDS011;40529;52.172;10.548;2023-05-10T04:16:37;10.13;;;7.07;;
53062;SDS011;40529;52.172;10.548;2023-05-10T04:19:03;10.27;;;7.13;;
53062;SDS011;40529;52.172;10.548;2023-05-10T04:21:29;11.00;;;7.60;;
53062;SDS011;40529;52.172;10.548;2023-05-10T04:23:55;10.85;;;7.25;;
53062;SDS011;40529;52.172;10.548;2023-05-10T04:26:21;8.57;;;6.38;;
53062;SDS011;40529;52.172;10.548;2023-05-10T04:28:47;12.32;;;6.90;;
53062;SDS011;40529;52.172;10.548;2023-05-10T04:31:13;8.15;;;6.63;;
53062;SDS011;40529;52.172;10.548;2023-05-10T04:33:39;8.48;;;6.78;;
53062;SDS011;40529;52.172;10.548;2023-05-10T04:36:05;9.18;;;6.75;;
53062;SDS011;40529;52.172;10.548;2023-05-10T04:38:32;10.18;;;7.43;;
53062;SDS011;40529;52.172;10.548;2023-05-10T04:41:04;12.50;;;6.88;;
53062;SDS011;40529;52.172;10.548;2023-05-10T04:43:31;9.93;;;6.93;;
53062;SDS011;40529;52.172;10.548;2023-05-10T04:45:57;13.73;;;7.72;;
53062;SDS011;40529;52.172;10.548;2023-05-10T04:48:23;10.93;;;7.53;;
53062;SDS011;40529;52.172;10.548;2023-05-10T04:50:49;7.78;;;6.55;;
53062;SDS011;40529;52.172;10.548;2023-05-10T04:53:15;8.88;;;6.55;;
53062;SDS011;40529;52.172;10.548;2023-05-10T04:55:41;10.52;;;7.35;;
53062;SDS011;40529;52.172;10.548;2023-05-10T04:58:07;10.68;;;6.85;;
53062;SDS011;40529;52.172;10.548;2023-05-10T05:00:33;9.00;;;7.03;;
53062;SDS011;40529;52.172;10.548;2023-05-10T05:03:00;8.63;;;6.88;;
53062;SDS011;40529;52.172;10.548;2023-05-10T05:05:26;8.93;;;7.22;;
53062;SDS011;40529;52.172;10.548;2023-05-10T05:07:52;10.25;;;7.13;;
53062;SDS011;40529;52.172;10.548;2023-05-10T05:10:18;12.18;;;7.50;;
53062;SDS011;40529;52.172;10.548;2023-05-10T05:12:44;9.23;;;6.78;;
53062;SDS011;40529;52.172;10.548;2023-05-10T05:15:10;10.60;;;6.68;;
53062;SDS011;40529;52.172;10.548;2023-05-10T05:17:36;12.68;;;7.28;;
53062;SDS011;40529;52.172;10.548;2023-05-10T05:20:02;10.75;;;7.60;;
53062;SDS011;40529;52.172;10.548;2023-05-10T05:22:28;10.93;;;7.35;;
53062;SDS011;40529;52.172;10.548;2023-05-10T05:24:55;9.82;;;7.05;;
53062;SDS011;40529;52.172;10.548;2023-05-10T05:27:21;12.82;;;7.50;;
53062;SDS011;40529;52.172;10.548;2023-05-10T05:29:49;10.32;;;7.95;;
53062;SDS011;40529;52.172;10.548;2023-05-10T05:32:16;10.98;;;7.70;;
53062;SDS011;40529;52.172;10.548;2023-05-10T05:34:44;11.95;;;8.30;;
53062;SDS011;40529;52.172;10.548;2023-05-10T05:37:14;11.25;;;7.70;;
53062;SDS011;40529;52.172;10.548;2023-05-10T05:39:40;14.43;;;8.18;;
53062;SDS011;40529;52.172;10.548;2023-05-10T05:42:06;10.50;;;7.75;;
53062;SDS011;40529;52.172;10.548;2023-05-10T05:44:32;12.30;;;8.23;;
53062;SDS011;40529;52.172;10.548;2023-05-10T05:46:58;11.82;;;8.52;;
53062;SDS011;40529;52.172;10.548;2023-05-10T05:49:24;12.18;;;8.65;;
53062;SDS011;40529;52.172;10.548;2023-05-10T05:51:50;11.32;;;8.65;;
53062;SDS011;40529;52.172;10.548;2023-05-10T05:54:16;11.48;;;8.30;;
53062;SDS011;40529;52.172;10.548;2023-05-10T05:56:42;13.05;;;9.45;;
53062;SDS011;40529;52.172;10.548;2023-05-10T05:59:09;11.20;;;8.20;;
53062;SDS011;40529;52.172;10.548;2023-05-10T06:01:35;11.57;;;8.52;;
53062;SDS011;40529;52.172;10.548;2023-05-10T06:04:01;13.45;;;8.52;;
53062;SDS011;40529;52.172;10.548;2023-05-10T06:06:27;14.93;;;8.52;;
53062;SDS011;40529;52.172;10.548;2023-05-10T06:08:53;12.23;;;8.68;;
53062;SDS011;40529;52.172;10.548;2023-05-10T06:11:19;11.75;;;8.90;;
53062;SDS011;40529;52.172;10.548;2023-05-10T06:13:48;13.00;;;8.83;;
53062;SDS011;40529;52.172;10.548;2023-05-10T06:16:15;12.60;;;8.98;;
53062;SDS011;40529;52.172;10.548;2023-05-10T06:18:41;13.60;;;9.15;;
53062;SDS011;40529;52.172;10.548;2023-05-10T06:21:07;12.00;;;8.73;;
53062;SDS011;40529;52.172;10.548;2023-05-10T06:23:33;15.30;;;9.20;;
53062;SDS011;40529;52.172;10.548;2023-05-10T06:25:59;13.73;;;9.10;;
53062;SDS011;40529;52.172;10.548;2023-05-10T06:28:25;14.93;;;8.98;;
53062;SDS011;40529;52.172;10.548;2023-05-10T06:30:51;16.30;;;9.52;;
53062;SDS011;40529;52.172;10.548;2023-05-10T06:33:17;10.98;;;8.93;;
53062;SDS011;40529;52.172;10.548;2023-05-10T06:35:43;12.88;;;9.40;;
53062;SDS011;40529;52.172;10.548;2023-05-10T06:38:10;14.13;;;9.25;;
53062;SDS011;40529;52.172;10.548;2023-05-10T06:40:36;14.60;;;8.95;;
53062;SDS011;40529;52.172;10.548;2023-05-10T06:43:02;12.50;;;9.35;;
53062;SDS011;40529;52.172;10.548;2023-05-10T06:45:28;12.20;;;9.55;;
53062;SDS011;40529;52.172;10.548;2023-05-10T06:47:54;14.13;;;9.48;;
53062;SDS011;40529;52.172;10.548;2023-05-10T06:50:20;13.35;;;10.00;;
53062;SDS011;40529;52.172;10.548;2023-05-10T06:52:46;14.63;;;10.73;;
53062;SDS011;40529;52.172;10.548;2023-05-10T06:55:12;14.15;;;10.88;;
53062;SDS011;40529;52.172;10.548;2023-05-10T06:57:38;15.32;;;11.25;;
53062;SDS011;40529;52.172;10.548;2023-05-10T07:00:05;15.52;;;11.02;;
53062;SDS011;40529;52.172;10.548;2023-05-10T07:02:31;15.93;;;11.45;;
53062;SDS011;40529;52.172;10.548;2023-05-10T07:04:57;15.13;;;11.50;;
53062;SDS011;40529;52.172;10.548;2023-05-10T07:07:23;14.13;;;11.68;;
53062;SDS011;40529;52.172;10.548;2023-05-10T07:09:49;18.38;;;12.18;;
53062;SDS011;40529;52.172;10.548;2023-05-10T07:12:16;15.82;;;11.45;;
53062;SDS011;40529;52.172;10.548;2023-05-10T07:14:42;13.48;;;10.70;;
53062;SDS011;40529;52.172;10.548;2023-05-10T07:17:08;17.45;;;11.50;;
53062;SDS011;40529;52.172;10.548;2023-05-10T07:19:34;15.77;;;11.88;;
53062;SDS011;40529;52.172;10.548;2023-05-10T07:22:00;15.15;;;12.10;;
53062;SDS011;40529;52.172;10.548;2023-05-10T07:24:26;14.93;;;11.63;;
53062;SDS011;40529;52.172;10.548;2023-05-10T07:26:52;14.57;;;11.55;;
53062;SDS011;40529;52.172;10.548;2023-05-10T07:29:18;13.38;;;11.52;;
53062;SDS011;40529;52.172;10.548;2023-05-10T07:31:44;15.55;;;11.48;;
53062;SDS011;40529;52.172;10.548;2023-05-10T07:34:10;14.07;;;11.00;;
53062;SDS011;40529;52.172;10.548;2023-05-10T07:36:36;18.48;;;11.98;;
53062;SDS011;40529;52.172;10.548;2023-05-10T07:39:02;16.23;;;11.63;;
53062;SDS011;40529;52.172;10.548;2023-05-10T07:41:29;16.88;;;12.40;;
53062;SDS011;40529;52.172;10.548;2023-05-10T07:43:55;18.65;;;13.55;;
53062;SDS011;40529;52.172;10.548;2023-05-10T07:46:21;17.40;;;13.82;;
53062;SDS011;40529;52.172;10.548;2023-05-10T07:48:47;17.50;;;12.10;;
53062;SDS011;40529;52.172;10.548;2023-05-10T07:51:12;16.08;;;11.13;;
53062;SDS011;40529;52.172;10.548;2023-05-10T07:53:38;15.27;;;11.30;;
53062;SDS011;40529;52.172;10.548;2023-05-10T07:58:50;15.98;;;11.73;;
53062;SDS011;40529;52.172;10.548;2023-05-10T08:01:17;13.57;;;10.80;;
53062;SDS011;40529;52.172;10.548;2023-05-10T08:03:43;15.73;;;11.05;;
53062;SDS011;40529;52.172;10.548;2023-05-10T08:06:09;15.07;;;11.43;;
53062;SDS011;40529;52.172;10.548;2023-05-10T08:08:35;16.88;;;11.73;;
53062;SDS011;40529;52.172;10.548;2023-05-10T08:11:01;14.43;;;11.43;;
53062;SDS011;40529;52.172;10.548;2023-05-10T08:13:27;19.00;;;12.95;;
53062;SDS011;40529;52.172;10.548;2023-05-10T08:15:53;17.60;;;13.00;;
53062;SDS011;40529;52.172;10.548;2023-05-10T08:18:19;18.80;;;12.80;;
53062;SDS011;40529;52.172;10.548;2023-05-10T08:20:45;15.18;;;11.60;;
53062;SDS011;40529;52.172;10.548;2023-05-10T08:23:12;17.30;;;12.75;;
53062;SDS011;40529;52.172;10.548;2023-05-10T08:25:38;16.35;;;12.73;;
53062;SDS011;40529;52.172;10.548;2023-05-10T08:28:04;15.35;;;12.15;;
53062;SDS011;40529;52.172;10.548;2023-05-10T08:30:30;16.02;;;12.23;;
53062;SDS011;40529;52.172;10.548;2023-05-10T08:32:57;20.73;;;13.00;;
53062;SDS011;40529;52.172;10.548;2023-05-10T08:35:23;18.33;;;12.80;;
53062;SDS011;40529;52.172;10.548;2023-05-10T08:37:50;16.55;;;13.48;;
53062;SDS011;40529;52.172;10.548;2023-05-10T08:40:16;17.75;;;13.90;;
53062;SDS011;40529;52.172;10.548;2023-05-10T08:42:47;20.60;;;14.43;;
53062;SDS011;40529;52.172;10.548;2023-05-10T08:45:16;18.58;;;14.90;;
53062;SDS011;40529;52.172;10.548;2023-05-10T08:47:43;17.83;;;13.65;;
53062;SDS011;40529;52.172;10.548;2023-05-10T08:50:09;18.65;;;12.90;;
53062;SDS011;40529;52.172;10.548;2023-05-10T08:52:36;18.67;;;14.57;;
53062;SDS011;40529;52.172;10.548;2023-05-10T08:55:05;18.52;;;14.15;;
53062;SDS011;40529;52.172;10.548;2023-05-10T08:57:31;18.27;;;13.00;;
53062;SDS011;40529;52.172;10.548;2023-05-10T08:59:57;16.67;;;13.48;;
53062;SDS011;40529;52.172;10.548;2023-05-10T09:02:23;17.92;;;13.02;;
53062;SDS011;40529;52.172;10.548;2023-05-10T09:04:50;15.80;;;12.82;;
53062;SDS011;40529;52.172;10.548;2023-05-10T09:07:16;18.13;;;13.45;;
53062;SDS011;40529;52.172;10.548;2023-05-10T09:09:42;17.75;;;12.85;;
53062;SDS011;40529;52.172;10.548;2023-05-10T09:12:09;16.05;;;12.23;;
53062;SDS011;40529;52.172;10.548;2023-05-10T09:14:36;17.02;;;12.90;;
53062;SDS011;40529;52.172;10.548;2023-05-10T09:17:02;15.75;;;11.77;;
53062;SDS011;40529;52.172;10.548;2023-05-10T09:19:28;16.08;;;12.80;;
53062;SDS011;40529;52.172;10.548;2023-05-10T09:21:54;17.02;;;12.75;;
53062;SDS011;40529;52.172;10.548;2023-05-10T09:24:24;18.73;;;12.98;;
53062;SDS011;40529;52.172;10.548;2023-05-10T09:26:51;16.60;;;13.25;;
53062;SDS011;40529;52.172;10.548;2023-05-10T09:29:17;16.48;;;13.30;;
53062;SDS011;40529;52.172;10.548;2023-05-10T09:31:47;14.07;;;11.90;;
53062;SDS011;40529;52.172;10.548;2023-05-10T09:34:16;13.75;;;11.52;;
53062;SDS011;40529;52.172;10.548;2023-05-10T09:39:38;14.30;;;11.05;;
53062;SDS011;40529;52.172;10.548;2023-05-10T09:42:06;14.55;;;11.07;;
53062;SDS011;40529;52.172;10.548;2023-05-10T09:44:33;13.65;;;11.20;;
53062;SDS011;40529;52.172;10.548;2023-05-10T09:47:00;15.70;;;12.57;;
53062;SDS011;40529;52.172;10.548;2023-05-10T09:49:26;14.55;;;10.80;;
53062;SDS011;40529;52.172;10.548;2023-05-10T09:52:05;10.10;;;8.80;;
53062;SDS011;40529;52.172;10.548;2023-05-10T09:54:32;10.10;;;8.60;;
53062;SDS011;40529;52.172;10.548;2023-05-10T09:56:58;9.68;;;7.68;;
53062;SDS011;40529;52.172;10.548;2023-05-10T09:59:24;8.23;;;6.40;;
53062;SDS011;40529;52.172;10.548;2023-05-10T10:01:52;7.65;;;5.35;;
53062;SDS011;40529;52.172;10.548;2023-05-10T10:04:19;12.57;;;8.30;;
53062;SDS011;40529;52.172;10.548;2023-05-10T10:06:46;9.10;;;6.38;;
53062;SDS011;40529;52.172;10.548;2023-05-10T10:09:12;13.63;;;8.10;;
53062;SDS011;40529;52.172;10.548;2023-05-10T10:11:39;8.85;;;6.40;;
53062;SDS011;40529;52.172;10.548;2023-05-10T10:14:06;4.80;;;3.60;;
53062;SDS011;40529;52.172;10.548;2023-05-10T10:16:32;4.40;;;3.60;;
53062;SDS011;40529;52.172;10.548;2023-05-10T10:18:58;5.03;;;3.20;;
53062;SDS011;40529;52.172;10.548;2023-05-10T10:21:24;2.58;;;2.28;;
53062;SDS011;40529;52.172;10.548;2023-05-10T10:23:50;3.85;;;2.42;;
53062;SDS011;40529;52.172;10.548;2023-05-10T10:26:18;2.85;;;2.17;;
53062;SDS011;40529;52.172;10.548;2023-05-10T10:31:25;3.97;;;2.22;;
53062;SDS011;40529;52.172;10.548;2023-05-10T10:34:03;2.70;;;2.03;;
53062;SDS011;40529;52.172;10.548;2023-05-10T10:36:30;4.10;;;2.50;;
53062;SDS011;40529;52.172;10.548;2023-05-10T10:39:00;3.10;;;2.00;;
53062;SDS011;40529;52.172;10.548;2023-05-10T10:41:33;1.38;;;1.27;;
53062;SDS011;40529;52.172;10.548;2023-05-10T10:52:23;1.38;;;1.02;;
53062;SDS011;40529;52.172;10.548;2023-05-10T10:55:01;1.77;;;1.20;;
53062;SDS011;40529;52.172;10.548;2023-05-10T10:57:28;1.30;;;1.13;;
53062;SDS011;40529;52.172;10.548;2023-05-10T11:02:46;2.45;;;1.40;;
53062;SDS011;40529;52.172;10.548;2023-05-10T11:05:33;2.63;;;1.55;;
53062;SDS011;40529;52.172;10.548;2023-05-10T11:08:01;3.33;;;1.80;;
53062;SDS011;40529;52.172;10.548;2023-05-10T11:10:32;2.33;;;1.60;;
53062;SDS011;40529;52.172;10.548;2023-05-10T11:13:02;3.25;;;1.55;;
53062;SDS011;40529;52.172;10.548;2023-05-10T11:15:29;2.67;;;1.05;;
53062;SDS011;40529;52.172;10.548;2023-05-10T11:17:55;2.08;;;1.02;;
53062;SDS011;40529;52.172;10.548;2023-05-10T11:20:21;1.13;;;0.60;;
53062;SDS011;40529;52.172;10.548;2023-05-10T11:22:53;1.30;;;0.80;;
53062;SDS011;40529;52.172;10.548;2023-05-10T11:27:47;1.05;;;0.90;;
53062;SDS011;40529;52.172;10.548;2023-05-10T11:30:13;1.65;;;1.33;;
53062;SDS011;40529;52.172;10.548;2023-05-10T11:32:40;0.82;;;0.82;;
53062;SDS011;40529;52.172;10.548;2023-05-10T11:35:07;1.00;;;0.90;;
53062;SDS011;40529;52.172;10.548;2023-05-10T11:37:33;2.25;;;1.00;;
53062;SDS011;40529;52.172;10.548;2023-05-10T11:39:59;0.90;;;0.90;;
53062;SDS011;40529;52.172;10.548;2023-05-10T11:42:25;1.30;;;1.20;;
53062;SDS011;40529;52.172;10.548;2023-05-10T11:44:53;5.45;;;1.30;;
53062;SDS011;40529;52.172;10.548;2023-05-10T11:47:19;1.55;;;1.45;;
53062;SDS011;40529;52.172;10.548;2023-05-10T11:49:45;1.15;;;1.05;;
53062;SDS011;40529;52.172;10.548;2023-05-10T11:52:11;1.23;;;1.10;;
53062;SDS011;40529;52.172;10.548;2023-05-10T11:54:37;1.48;;;1.38;;
53062;SDS011;40529;52.172;10.548;2023-05-10T11:57:03;1.95;;;1.35;;
53062;SDS011;40529;52.172;10.548;2023-05-10T11:59:30;1.35;;;1.10;;
53062;SDS011;40529;52.172;10.548;2023-05-10T12:01:56;1.42;;;1.10;;
53062;SDS011;40529;52.172;10.548;2023-05-10T12:04:22;1.38;;;1.00;;
53062;SDS011;40529;52.172;10.548;2023-05-10T12:06:48;1.70;;;1.30;;
53062;SDS011;40529;52.172;10.548;2023-05-10T12:09:14;1.80;;;1.15;;
53062;SDS011;40529;52.172;10.548;2023-05-10T12:11:40;1.83;;;1.35;;
53062;SDS011;40529;52.172;10.548;2023-05-10T12:14:07;3.20;;;1.10;;
53062;SDS011;40529;52.172;10.548;2023-05-10T12:16:34;1.20;;;1.00;;
53062;SDS011;40529;52.172;10.548;2023-05-10T12:19:01;1.48;;;0.98;;
53062;SDS011;40529;52.172;10.548;2023-05-10T12:21:27;1.38;;;1.08;;
53062;SDS011;40529;52.172;10.548;2023-05-10T12:23:54;1.10;;;0.80;;
53062;SDS011;40529;52.172;10.548;2023-05-10T12:26:21;1.98;;;0.80;;
53062;SDS011;40529;52.172;10.548;2023-05-10T12:28:47;3.05;;;0.98;;
53062;SDS011;40529;52.172;10.548;2023-05-10T12:31:13;1.45;;;0.95;;
53062;SDS011;40529;52.172;10.548;2023-05-10T12:33:41;1.60;;;1.00;;
53062;SDS011;40529;52.172;10.548;2023-05-10T12:36:08;1.42;;;1.02;;
53062;SDS011;40529;52.172;10.548;2023-05-10T12:41:02;2.35;;;1.27;;
53062;SDS011;40529;52.172;10.548;2023-05-10T12:43:29;1.73;;;0.95;;
53062;SDS011;40529;52.172;10.548;2023-05-10T12:45:55;1.55;;;1.10;;
53062;SDS011;40529;52.172;10.548;2023-05-10T12:48:21;1.42;;;1.27;;
53062;SDS011;40529;52.172;10.548;2023-05-10T12:50:47;2.70;;;1.60;;
53062;SDS011;40529;52.172;10.548;2023-05-10T12:53:14;10.48;;;5.07;;
53062;SDS011;40529;52.172;10.548;2023-05-10T12:55:43;3.25;;;1.20;;
53062;SDS011;40529;52.172;10.548;2023-05-10T12:58:09;2.47;;;1.35;;
53062;SDS011;40529;52.172;10.548;2023-05-10T13:00:35;1.45;;;1.02;;
53062;SDS011;40529;52.172;10.548;2023-05-10T13:03:03;2.47;;;1.10;;
53062;SDS011;40529;52.172;10.548;2023-05-10T13:05:30;1.95;;;1.17;;
53062;SDS011;40529;52.172;10.548;2023-05-10T13:07:56;2.55;;;1.17;;
53062;SDS011;40529;52.172;10.548;2023-05-10T13:10:22;1.92;;;1.20;;
53062;SDS011;40529;52.172;10.548;2023-05-10T13:12:48;1.75;;;1.08;;
53062;SDS011;40529;52.172;10.548;2023-05-10T13:15:14;2.35;;;1.50;;
53062;SDS011;40529;52.172;10.548;2023-05-10T13:17:40;1.70;;;1.27;;
53062;SDS011;40529;52.172;10.548;2023-05-10T13:20:07;3.38;;;1.80;;
53062;SDS011;40529;52.172;10.548;2023-05-10T13:22:34;2.78;;;1.80;;
53062;SDS011;40529;52.172;10.548;2023-05-10T13:25:01;4.38;;;1.63;;
53062;SDS011;40529;52.172;10.548;2023-05-10T13:27:27;2.67;;;1.98;;
53062;SDS011;40529;52.172;10.548;2023-05-10T13:29:53;1.65;;;1.17;;
53062;SDS011;40529;52.172;10.548;2023-05-10T13:32:19;4.60;;;1.45;;
53062;SDS011;40529;52.172;10.548;2023-05-10T13:34:45;2.58;;;1.25;;
53062;SDS011;40529;52.172;10.548;2023-05-10T13:37:11;2.20;;;1.30;;
53062;SDS011;40529;52.172;10.548;2023-05-10T13:39:37;1.83;;;1.50;;
53062;SDS011;40529;52.172;10.548;2023-05-10T13:42:04;9.07;;;5.40;;
53062;SDS011;40529;52.172;10.548;2023-05-10T13:44:30;4.00;;;2.90;;
53062;SDS011;40529;52.172;10.548;2023-05-10T13:46:58;3.00;;;1.27;;
53062;SDS011;40529;52.172;10.548;2023-05-10T13:49:24;3.47;;;1.70;;
53062;SDS011;40529;52.172;10.548;2023-05-10T13:51:50;1.65;;;1.38;;
53062;SDS011;40529;52.172;10.548;2023-05-10T13:54:17;1.88;;;1.33;;
53062;SDS011;40529;52.172;10.548;2023-05-10T13:56:45;3.63;;;1.15;;
53062;SDS011;40529;52.172;10.548;2023-05-10T13:59:12;1.92;;;1.25;;
53062;SDS011;40529;52.172;10.548;2023-05-10T14:01:39;3.38;;;2.08;;
53062;SDS011;40529;52.172;10.548;2023-05-10T14:04:05;2.60;;;1.88;;
53062;SDS011;40529;52.172;10.548;2023-05-10T14:06:32;1.77;;;1.67;;
53062;SDS011;40529;52.172;10.548;2023-05-10T14:08:58;2.88;;;2.00;;
53062;SDS011;40529;52.172;10.548;2023-05-10T14:11:24;4.13;;;1.90;;
53062;SDS011;40529;52.172;10.548;2023-05-10T14:13:50;3.40;;;2.17;;
53062;SDS011;40529;52.172;10.548;2023-05-10T14:16:16;2.90;;;2.08;;
53062;SDS011;40529;52.172;10.548;2023-05-10T14:18:43;2.25;;;2.05;;
53062;SDS011;40529;52.172;10.548;2023-05-10T14:21:09;2.53;;;2.10;;
53062;SDS011;40529;52.172;10.548;2023-05-10T14:23:35;4.82;;;2.47;;
53062;SDS011;40529;52.172;10.548;2023-05-10T14:26:01;2.85;;;2.13;;
53062;SDS011;40529;52.172;10.548;2023-05-10T14:28:27;3.47;;;2.08;;
53062;SDS011;40529;52.172;10.548;2023-05-10T14:30:53;3.58;;;2.42;;
53062;SDS011;40529;52.172;10.548;2023-05-10T14:33:19;4.60;;;2.10;;
53062;SDS011;40529;52.172;10.548;2023-05-10T14:35:46;3.95;;;2.40;;
53062;SDS011;40529;52.172;10.548;2023-05-10T14:38:12;2.65;;;2.17;;
53062;SDS011;40529;52.172;10.548;2023-05-10T14:40:38;3.15;;;2.80;;
53062;SDS011;40529;52.172;10.548;2023-05-10T14:43:04;2.80;;;2.55;;
53062;SDS011;40529;52.172;10.548;2023-05-10T14:45:30;3.80;;;2.80;;
53062;SDS011;40529;52.172;10.548;2023-05-10T14:47:56;4.88;;;2.88;;
53062;SDS011;40529;52.172;10.548;2023-05-10T14:50:22;4.63;;;3.00;;
53062;SDS011;40529;52.172;10.548;2023-05-10T14:52:48;3.88;;;2.60;;
53062;SDS011;40529;52.172;10.548;2023-05-10T14:55:15;4.70;;;2.70;;
53062;SDS011;40529;52.172;10.548;2023-05-10T14:57:41;2.00;;;1.90;;
53062;SDS011;40529;52.172;10.548;2023-05-10T15:00:09;3.15;;;2.30;;
53062;SDS011;40529;52.172;10.548;2023-05-10T15:02:35;3.15;;;2.40;;
53062;SDS011;40529;52.172;10.548;2023-05-10T15:05:01;2.75;;;2.20;;
53062;SDS011;40529;52.172;10.548;2023-05-10T15:07:27;2.10;;;1.90;;